sensor_id;sensor_type;location;lat;lon;timestamp;pressure;altitude;pressure_sealevel;temperature;humidity
23899;BME280;20544;50.018;20.010;2023-07-31T00:02:41;98356.41;;;18.70;100.00
23899;BME280;20544;50.018;20.010;2023-07-31T00:05:58;98355.61;;;18.70;100.00
23899;BME280;20544;50.018;20.010;2023-07-31T00:09:14;98353.42;;;18.67;100.00
23899;BME280;20544;50.018;20.010;2023-07-31T00:12:31;98352.34;;;18.68;100.00
23899;BME280;20544;50.018;20.010;2023-07-31T00:15:47;98353.72;;;18.70;100.00
23899;BME280;20544;50.018;20.010;2023-07-31T00:19:04;98362.86;;;18.69;100.00
23899;BME280;20544;50.018;20.010;2023-07-31T00:22:21;98357.97;;;18.66;100.00
23899;BME280;20544;50.018;20.010;2023-07-31T00:25:38;98357.89;;;18.61;100.00
23899;BME280;20544;50.018;20.010;2023-07-31T00:28:54;98359.20;;;18.58;100.00
23899;BME280;20544;50.018;20.010;2023-07-31T00:32:11;98369.36;;;18.56;100.00
23899;BME280;20544;50.018;20.010;2023-07-31T00:35:27;98366.20;;;18.59;100.00
23899;BME280;20544;50.018;20.010;2023-07-31T00:38:44;98366.20;;;18.59;100.00
23899;BME280;20544;50.018;20.010;2023-07-31T00:42:00;98366.86;;;18.67;100.00
23899;BME280;20544;50.018;20.010;2023-07-31T00:45:18;98367.66;;;18.67;100.00
23899;BME280;20544;50.018;20.010;2023-07-31T00:48:36;98375.71;;;18.67;100.00
23899;BME280;20544;50.018;20.010;2023-07-31T00:51:54;98375.53;;;18.74;100.00
23899;BME280;20544;50.018;20.010;2023-07-31T00:55:12;98376.70;;;18.78;100.00
23899;BME280;20544;50.018;20.010;2023-07-31T00:58:29;98371.55;;;18.76;100.00
23899;BME280;20544;50.018;20.010;2023-07-31T01:01:46;98370.41;;;18.72;100.00
23899;BME280;20544;50.018;20.010;2023-07-31T01:05:04;98375.79;;;18.72;100.00
23899;BME280;20544;50.018;20.010;2023-07-31T01:08:25;98380.11;;;18.73;100.00
23899;BME280;20544;50.018;20.010;2023-07-31T01:11:46;98371.55;;;18.76;100.00
23899;BME280;20544;50.018;20.010;2023-07-31T01:15:09;98370.41;;;18.72;100.00
23899;BME280;20544;50.018;20.010;2023-07-31T01:18:26;98372.05;;;18.73;100.00
23899;BME280;20544;50.018;20.010;2023-07-31T01:26:02;98377.49;;;18.79;100.00
23899;BME280;20544;50.018;20.010;2023-07-31T01:29:28;98380.11;;;18.73;100.00
23899;BME280;20544;50.018;20.010;2023-07-31T01:32:50;98378.00;;;18.75;100.00
23899;BME280;20544;50.018;20.010;2023-07-31T01:36:08;98382.06;;;18.78;100.00
23899;BME280;20544;50.018;20.010;2023-07-31T01:39:25;98380.44;;;18.77;100.00
23899;BME280;20544;50.018;20.010;2023-07-31T01:42:41;98381.02;;;18.79;100.00
23899;BME280;20544;50.018;20.010;2023-07-31T01:45:58;98387.44;;;18.78;100.00
23899;BME280;20544;50.018;20.010;2023-07-31T01:49:14;98386.86;;;18.76;100.00
23899;BME280;20544;50.018;20.010;2023-07-31T01:52:31;98388.16;;;18.73;100.00
23899;BME280;20544;50.018;20.010;2023-07-31T01:55:48;98392.81;;;18.78;100.00
23899;BME280;20544;50.018;20.010;2023-07-31T01:59:05;98390.45;;;18.82;100.00
23899;BME280;20544;50.018;20.010;2023-07-31T02:02:22;98390.45;;;18.82;100.00
23899;BME280;20544;50.018;20.010;2023-07-31T02:05:45;98395.72;;;18.76;100.00
23899;BME280;20544;50.018;20.010;2023-07-31T02:09:01;98399.16;;;18.72;100.00
23899;BME280;20544;50.018;20.010;2023-07-31T02:12:18;98397.85;;;18.74;100.00
23899;BME280;20544;50.018;20.010;2023-07-31T02:15:34;98401.84;;;18.72;100.00
23899;BME280;20544;50.018;20.010;2023-07-31T02:18:51;98399.08;;;18.67;100.00
23899;BME280;20544;50.018;20.010;2023-07-31T02:22:08;98406.05;;;18.68;100.00
23899;BME280;20544;50.018;20.010;2023-07-31T02:25:24;98413.72;;;18.76;100.00
23899;BME280;20544;50.018;20.010;2023-07-31T02:28:40;98418.29;;;18.75;100.00
23899;BME280;20544;50.018;20.010;2023-07-31T02:31:57;98425.27;;;18.76;100.00
23899;BME280;20544;50.018;20.010;2023-07-31T02:35:14;98434.30;;;18.70;100.00
23899;BME280;20544;50.018;20.010;2023-07-31T02:38:30;98435.45;;;18.74;100.00
23899;BME280;20544;50.018;20.010;2023-07-31T02:41:46;98445.87;;;18.71;100.00
23899;BME280;20544;50.018;20.010;2023-07-31T02:45:04;98451.95;;;18.66;100.00
23899;BME280;20544;50.018;20.010;2023-07-31T02:48:22;98443.35;;;18.64;100.00
23899;BME280;20544;50.018;20.010;2023-07-31T02:51:39;98459.77;;;18.68;100.00
23899;BME280;20544;50.018;20.010;2023-07-31T02:54:55;98461.73;;;18.72;100.00
23899;BME280;20544;50.018;20.010;2023-07-31T02:58:12;98462.31;;;18.74;100.00
23899;BME280;20544;50.018;20.010;2023-07-31T03:01:28;98465.33;;;18.78;100.00
23899;BME280;20544;50.018;20.010;2023-07-31T03:04:45;98470.38;;;18.74;100.00
23899;BME280;20544;50.018;20.010;2023-07-31T03:08:01;98473.39;;;18.78;100.00
23899;BME280;20544;50.018;20.010;2023-07-31T03:11:18;98473.14;;;18.80;100.00
23899;BME280;20544;50.018;20.010;2023-07-31T03:14:34;98474.36;;;18.72;100.00
23899;BME280;20544;50.018;20.010;2023-07-31T03:17:51;98479.23;;;18.75;100.00
23899;BME280;20544;50.018;20.010;2023-07-31T03:21:07;98486.73;;;18.73;100.00
23899;BME280;20544;50.018;20.010;2023-07-31T03:24:24;98483.80;;;18.74;100.00
23899;BME280;20544;50.018;20.010;2023-07-31T03:27:41;98481.37;;;18.73;100.00
23899;BME280;20544;50.018;20.010;2023-07-31T03:30:58;98479.23;;;18.75;100.00
23899;BME280;20544;50.018;20.010;2023-07-31T03:34:14;98480.53;;;18.72;100.00
23899;BME280;20544;50.018;20.010;2023-07-31T03:37:31;98478.09;;;18.71;100.00
23899;BME280;20544;50.018;20.010;2023-07-31T03:40:47;98482.00;;;18.63;100.00
23899;BME280;20544;50.018;20.010;2023-07-31T03:44:04;98478.48;;;18.63;100.00
23899;BME280;20544;50.018;20.010;2023-07-31T03:47:21;98475.46;;;18.59;100.00
23899;BME280;20544;50.018;20.010;2023-07-31T03:50:38;98476.77;;;18.56;100.00
23899;BME280;20544;50.018;20.010;2023-07-31T03:53:55;98474.58;;;18.53;100.00
23899;BME280;20544;50.018;20.010;2023-07-31T03:57:11;98471.39;;;18.56;100.00
23899;BME280;20544;50.018;20.010;2023-07-31T04:00:28;98472.56;;;18.61;100.00
23899;BME280;20544;50.018;20.010;2023-07-31T04:03:45;98475.46;;;18.59;100.00
23899;BME280;20544;50.018;20.010;2023-07-31T04:07:01;98472.56;;;18.61;100.00
23899;BME280;20544;50.018;20.010;2023-07-31T04:10:18;98479.87;;;18.65;100.00
23899;BME280;20544;50.018;20.010;2023-07-31T04:13:35;98470.04;;;18.71;100.00
23899;BME280;20544;50.018;20.010;2023-07-31T04:16:52;98477.05;;;18.72;100.00
23899;BME280;20544;50.018;20.010;2023-07-31T04:20:10;98473.53;;;18.71;100.00
23899;BME280;20544;50.018;20.010;2023-07-31T04:23:27;98469.46;;;18.69;100.00
23899;BME280;20544;50.018;20.010;2023-07-31T04:26:44;98483.22;;;18.72;100.00
23899;BME280;20544;50.018;20.010;2023-07-31T04:30:01;98477.27;;;18.70;100.00
23899;BME280;20544;50.018;20.010;2023-07-31T04:33:18;98478.56;;;18.68;100.00
23899;BME280;20544;50.018;20.010;2023-07-31T04:36:35;98485.58;;;18.69;100.00
23899;BME280;20544;50.018;20.010;2023-07-31T04:39:51;98487.70;;;18.67;100.00
23899;BME280;20544;50.018;20.010;2023-07-31T04:43:08;98497.56;;;18.78;100.00
23899;BME280;20544;50.018;20.010;2023-07-31T04:46:25;98492.36;;;18.88;100.00
23899;BME280;20544;50.018;20.010;2023-07-31T04:49:41;98502.16;;;18.95;100.00
23899;BME280;20544;50.018;20.010;2023-07-31T04:52:58;98503.38;;;19.04;100.00
23899;BME280;20544;50.018;20.010;2023-07-31T04:56:15;98508.13;;;18.97;100.00
23899;BME280;20544;50.018;20.010;2023-07-31T04:59:32;98511.03;;;18.95;100.00
23899;BME280;20544;50.018;20.010;2023-07-31T05:02:48;98517.78;;;18.98;100.00
23899;BME280;20544;50.018;20.010;2023-07-31T05:06:05;98524.23;;;18.97;100.00
23899;BME280;20544;50.018;20.010;2023-07-31T05:09:23;98532.05;;;18.98;100.00
23899;BME280;20544;50.018;20.010;2023-07-31T05:12:39;98531.47;;;18.96;100.00
23899;BME280;20544;50.018;20.010;2023-07-31T05:15:56;98535.54;;;18.99;100.00
23899;BME280;20544;50.018;20.010;2023-07-31T05:19:13;98536.29;;;18.94;100.00
23899;BME280;20544;50.018;20.010;2023-07-31T05:22:29;98544.77;;;19.03;100.00
23899;BME280;20544;50.018;20.010;2023-07-31T05:25:46;98548.25;;;19.03;100.00
23899;BME280;20544;50.018;20.010;2023-07-31T05:29:02;98550.53;;;18.95;100.00
23899;BME280;20544;50.018;20.010;2023-07-31T05:32:18;98553.30;;;19.00;100.00
23899;BME280;20544;50.018;20.010;2023-07-31T05:35:35;98546.04;;;19.00;100.00
23899;BME280;20544;50.018;20.010;2023-07-31T05:38:53;98557.38;;;19.02;100.00
23899;BME280;20544;50.018;20.010;2023-07-31T05:42:11;98552.72;;;18.98;100.00
23899;BME280;20544;50.018;20.010;2023-07-31T05:45:28;98554.77;;;19.07;100.00
23899;BME280;20544;50.018;20.010;2023-07-31T05:48:45;98561.44;;;19.05;100.00
23899;BME280;20544;50.018;20.010;2023-07-31T05:52:03;98549.89;;;19.04;100.00
23899;BME280;20544;50.018;20.010;2023-07-31T05:55:21;98552.66;;;19.10;100.00
23899;BME280;20544;50.018;20.010;2023-07-31T05:58:38;98558.78;;;19.22;100.00
23899;BME280;20544;50.018;20.010;2023-07-31T06:01:54;98559.36;;;19.24;100.00
23899;BME280;20544;50.018;20.010;2023-07-31T06:05:11;98560.63;;;19.21;100.00
23899;BME280;20544;50.018;20.010;2023-07-31T06:08:28;98561.63;;;19.32;100.00
23899;BME280;20544;50.018;20.010;2023-07-31T06:11:45;98562.53;;;19.38;100.00
23899;BME280;20544;50.018;20.010;2023-07-31T06:15:02;98561.70;;;19.37;100.00
23899;BME280;20544;50.018;20.010;2023-07-31T06:18:20;98565.14;;;19.33;100.00
23899;BME280;20544;50.018;20.010;2023-07-31T06:21:37;98556.97;;;19.28;100.00
23899;BME280;20544;50.018;20.010;2023-07-31T06:24:53;98563.01;;;19.35;100.00
23899;BME280;20544;50.018;20.010;2023-07-31T06:28:10;98561.23;;;19.40;100.00
23899;BME280;20544;50.018;20.010;2023-07-31T06:31:27;98570.82;;;19.36;100.00
23899;BME280;20544;50.018;20.010;2023-07-31T06:34:47;98575.39;;;19.36;100.00
23899;BME280;20544;50.018;20.010;2023-07-31T06:38:03;98565.70;;;19.35;100.00
23899;BME280;20544;50.018;20.010;2023-07-31T06:41:20;98569.55;;;19.39;100.00
23899;BME280;20544;50.018;20.010;2023-07-31T06:44:38;98565.44;;;19.36;100.00
23899;BME280;20544;50.018;20.010;2023-07-31T06:47:54;98564.31;;;19.32;100.00
23899;BME280;20544;50.018;20.010;2023-07-31T06:51:12;98563.26;;;19.33;100.00
23899;BME280;20544;50.018;20.010;2023-07-31T06:54:29;98560.49;;;19.28;100.00
23899;BME280;20544;50.018;20.010;2023-07-31T06:57:45;98567.72;;;19.28;100.00
23899;BME280;20544;50.018;20.010;2023-07-31T07:01:02;98571.50;;;19.27;100.00
23899;BME280;20544;50.018;20.010;2023-07-31T07:04:19;98572.30;;;19.27;100.00
23899;BME280;20544;50.018;20.010;2023-07-31T07:07:38;98566.02;;;19.21;100.00
23899;BME280;20544;50.018;20.010;2023-07-31T07:10:55;98568.15;;;19.19;100.00
23899;BME280;20544;50.018;20.010;2023-07-31T07:14:12;98567.25;;;19.31;100.00
23899;BME280;20544;50.018;20.010;2023-07-31T07:17:36;98571.58;;;19.32;100.00
23899;BME280;20544;50.018;20.010;2023-07-31T07:20:58;98562.34;;;19.28;100.00
23899;BME280;20544;50.018;20.010;2023-07-31T07:24:15;98563.66;;;19.42;100.00
23899;BME280;20544;50.018;20.010;2023-07-31T07:27:31;98555.02;;;19.57;100.00
23899;BME280;20544;50.018;20.010;2023-07-31T07:30:52;98556.92;;;19.79;100.00
23899;BME280;20544;50.018;20.010;2023-07-31T07:34:08;98561.06;;;20.03;100.00
23899;BME280;20544;50.018;20.010;2023-07-31T07:37:25;98561.27;;;20.41;100.00
23899;BME280;20544;50.018;20.010;2023-07-31T07:40:48;98565.08;;;20.45;100.00
23899;BME280;20544;50.018;20.010;2023-07-31T07:44:05;98566.27;;;20.32;100.00
23899;BME280;20544;50.018;20.010;2023-07-31T07:47:24;98570.53;;;20.28;100.00
23899;BME280;20544;50.018;20.010;2023-07-31T07:50:44;98567.03;;;20.28;100.00
23899;BME280;20544;50.018;20.010;2023-07-31T07:57:17;98585.56;;;20.24;100.00
23899;BME280;20544;50.018;20.010;2023-07-31T08:00:34;98576.66;;;20.24;100.00
23899;BME280;20544;50.018;20.010;2023-07-31T08:03:51;98588.52;;;20.23;100.00
23899;BME280;20544;50.018;20.010;2023-07-31T08:07:08;98584.06;;;20.11;100.00
23899;BME280;20544;50.018;20.010;2023-07-31T08:10:28;98592.05;;;20.06;100.00
23899;BME280;20544;50.018;20.010;2023-07-31T08:13:46;98584.67;;;19.96;100.00
23899;BME280;20544;50.018;20.010;2023-07-31T08:17:04;98588.97;;;19.97;100.00
23899;BME280;20544;50.018;20.010;2023-07-31T08:20:22;98587.84;;;19.93;100.00
23899;BME280;20544;50.018;20.010;2023-07-31T08:23:40;98593.41;;;19.86;100.00
23899;BME280;20544;50.018;20.010;2023-07-31T08:26:59;98589.65;;;19.70;100.00
23899;BME280;20544;50.018;20.010;2023-07-31T08:30:23;98589.25;;;19.62;100.00
23899;BME280;20544;50.018;20.010;2023-07-31T08:33:40;98580.27;;;19.73;100.00
23899;BME280;20544;50.018;20.010;2023-07-31T08:36:56;98595.78;;;19.83;100.00
23899;BME280;20544;50.018;20.010;2023-07-31T08:40:13;98595.02;;;19.87;100.00
23899;BME280;20544;50.018;20.010;2023-07-31T08:43:34;98593.30;;;19.98;100.00
23899;BME280;20544;50.018;20.010;2023-07-31T08:46:52;98598.97;;;20.19;100.00
23899;BME280;20544;50.018;20.010;2023-07-31T08:50:27;98598.28;;;20.29;100.00
23899;BME280;20544;50.018;20.010;2023-07-31T08:53:43;98595.71;;;20.39;100.00
23899;BME280;20544;50.018;20.010;2023-07-31T08:57:00;98593.45;;;20.31;100.00
23899;BME280;20544;50.018;20.010;2023-07-31T09:00:17;98588.27;;;20.46;100.00
23899;BME280;20544;50.018;20.010;2023-07-31T09:03:36;98589.17;;;20.57;100.00
23899;BME280;20544;50.018;20.010;2023-07-31T09:06:57;98593.86;;;20.67;100.00
23899;BME280;20544;50.018;20.010;2023-07-31T09:10:18;98602.10;;;20.55;100.00
23899;BME280;20544;50.018;20.010;2023-07-31T09:13:36;98599.58;;;20.48;100.00
23899;BME280;20544;50.018;20.010;2023-07-31T09:16:57;98587.63;;;20.39;100.00
23899;BME280;20544;50.018;20.010;2023-07-31T09:20:19;98587.43;;;20.46;100.00
23899;BME280;20544;50.018;20.010;2023-07-31T09:23:46;98586.63;;;20.45;100.00
23899;BME280;20544;50.018;20.010;2023-07-31T09:27:05;98592.38;;;20.54;100.00
23899;BME280;20544;50.018;20.010;2023-07-31T09:30:23;98587.85;;;20.60;100.00
23899;BME280;20544;50.018;20.010;2023-07-31T09:33:53;98579.98;;;20.75;100.00
23899;BME280;20544;50.018;20.010;2023-07-31T09:37:12;98579.28;;;20.85;100.00
23899;BME280;20544;50.018;20.010;2023-07-31T09:40:31;98586.44;;;21.01;100.00
23899;BME280;20544;50.018;20.010;2023-07-31T09:43:58;98578.92;;;21.36;100.00
23899;BME280;20544;50.018;20.010;2023-07-31T09:47:24;98584.69;;;21.50;100.00
23899;BME280;20544;50.018;20.010;2023-07-31T09:50:43;98568.74;;;21.81;100.00
23899;BME280;20544;50.018;20.010;2023-07-31T09:54:03;98575.78;;;22.40;100.00
23899;BME280;20544;50.018;20.010;2023-07-31T09:57:30;98582.97;;;22.93;100.00
23899;BME280;20544;50.018;20.010;2023-07-31T10:00:48;98570.58;;;23.38;100.00
23899;BME280;20544;50.018;20.010;2023-07-31T10:04:05;98573.23;;;23.80;100.00
23899;BME280;20544;50.018;20.010;2023-07-31T10:07:27;98564.75;;;24.22;100.00
23899;BME280;20544;50.018;20.010;2023-07-31T10:10:46;98568.95;;;24.49;100.00
23899;BME280;20544;50.018;20.010;2023-07-31T10:14:06;98557.17;;;24.75;100.00
23899;BME280;20544;50.018;20.010;2023-07-31T10:17:24;98560.30;;;24.97;100.00
23899;BME280;20544;50.018;20.010;2023-07-31T10:20:42;98569.00;;;25.29;100.00
23899;BME280;20544;50.018;20.010;2023-07-31T10:24:02;98559.31;;;25.52;100.00
23899;BME280;20544;50.018;20.010;2023-07-31T10:27:21;98553.33;;;25.55;100.00
23899;BME280;20544;50.018;20.010;2023-07-31T10:30:38;98554.28;;;25.70;100.00
23899;BME280;20544;50.018;20.010;2023-07-31T10:33:56;98552.54;;;25.79;100.00
23899;BME280;20544;50.018;20.010;2023-07-31T10:37:35;98559.71;;;25.94;100.00
23899;BME280;20544;50.018;20.010;2023-07-31T10:40:56;98545.77;;;26.06;100.00
23899;BME280;20544;50.018;20.010;2023-07-31T10:44:23;98544.38;;;26.03;100.00
23899;BME280;20544;50.018;20.010;2023-07-31T10:47:44;98544.08;;;26.10;100.00
23899;BME280;20544;50.018;20.010;2023-07-31T10:51:01;98532.19;;;26.06;100.00
23899;BME280;20544;50.018;20.010;2023-07-31T10:54:25;98533.30;;;25.75;100.00
23899;BME280;20544;50.018;20.010;2023-07-31T10:57:46;98523.14;;;25.86;100.00
23899;BME280;20544;50.018;20.010;2023-07-31T11:01:06;98525.85;;;25.86;100.00
23899;BME280;20544;50.018;20.010;2023-07-31T11:04:26;98523.44;;;25.84;100.00
23899;BME280;20544;50.018;20.010;2023-07-31T11:07:49;98514.30;;;25.16;100.00
23899;BME280;20544;50.018;20.010;2023-07-31T11:11:11;98516.65;;;25.58;100.00
23899;BME280;20544;50.018;20.010;2023-07-31T11:14:28;98503.72;;;25.74;100.00
23899;BME280;20544;50.018;20.010;2023-07-31T11:17:47;98513.46;;;25.50;100.00
23899;BME280;20544;50.018;20.010;2023-07-31T11:21:05;98513.31;;;25.66;100.00
23899;BME280;20544;50.018;20.010;2023-07-31T11:24:21;98497.35;;;25.59;100.00
23899;BME280;20544;50.018;20.010;2023-07-31T11:27:51;98509.27;;;25.63;100.00
23899;BME280;20544;50.018;20.010;2023-07-31T11:31:10;98509.03;;;25.60;100.00
23899;BME280;20544;50.018;20.010;2023-07-31T11:34:29;98517.56;;;25.48;100.00
23899;BME280;20544;50.018;20.010;2023-07-31T11:37:46;98505.74;;;25.33;100.00
23899;BME280;20544;50.018;20.010;2023-07-31T11:41:04;98509.22;;;25.10;100.00
23899;BME280;20544;50.018;20.010;2023-07-31T11:44:21;98503.20;;;25.13;100.00
23899;BME280;20544;50.018;20.010;2023-07-31T11:47:39;98501.77;;;25.20;100.00
23899;BME280;20544;50.018;20.010;2023-07-31T11:50:57;98495.86;;;25.13;100.00
23899;BME280;20544;50.018;20.010;2023-07-31T11:54:19;98491.77;;;25.16;100.00
23899;BME280;20544;50.018;20.010;2023-07-31T11:57:37;98487.70;;;25.18;100.00
23899;BME280;20544;50.018;20.010;2023-07-31T12:00:55;98476.61;;;25.15;100.00
23899;BME280;20544;50.018;20.010;2023-07-31T12:04:15;98470.89;;;25.16;100.00
23899;BME280;20544;50.018;20.010;2023-07-31T12:07:46;98471.74;;;25.12;100.00
23899;BME280;20544;50.018;20.010;2023-07-31T12:11:07;98475.98;;;24.94;100.00
23899;BME280;20544;50.018;20.010;2023-07-31T12:14:27;98472.73;;;24.92;100.00
23899;BME280;20544;50.018;20.010;2023-07-31T12:17:48;98469.48;;;24.90;100.00
23899;BME280;20544;50.018;20.010;2023-07-31T12:21:07;98470.31;;;24.90;100.00
23899;BME280;20544;50.018;20.010;2023-07-31T12:24:27;98463.81;;;24.86;100.00
23899;BME280;20544;50.018;20.010;2023-07-31T12:27:45;98464.40;;;24.83;100.00
23899;BME280;20544;50.018;20.010;2023-07-31T12:31:03;98464.73;;;24.76;100.00
23899;BME280;20544;50.018;20.010;2023-07-31T12:34:20;98459.31;;;24.76;100.00
23899;BME280;20544;50.018;20.010;2023-07-31T12:37:37;98449.84;;;24.74;100.00
23899;BME280;20544;50.018;20.010;2023-07-31T12:40:54;98445.02;;;24.65;100.00
23899;BME280;20544;50.018;20.010;2023-07-31T12:44:11;98440.16;;;24.57;100.00
23899;BME280;20544;50.018;20.010;2023-07-31T12:47:27;98443.70;;;24.58;100.00
23899;BME280;20544;50.018;20.010;2023-07-31T12:50:44;98435.28;;;24.59;100.00
23899;BME280;20544;50.018;20.010;2023-07-31T12:54:00;98434.98;;;24.61;100.00
23899;BME280;20544;50.018;20.010;2023-07-31T12:57:17;98430.94;;;24.58;100.00
23899;BME280;20544;50.018;20.010;2023-07-31T13:00:33;98429.31;;;24.57;100.00
23899;BME280;20544;50.018;20.010;2023-07-31T13:03:50;98425.81;;;24.57;100.00
23899;BME280;20544;50.018;20.010;2023-07-31T13:07:08;98419.85;;;24.54;100.00
23899;BME280;20544;50.018;20.010;2023-07-31T13:10:25;98422.07;;;24.47;100.00
23899;BME280;20544;50.018;20.010;2023-07-31T13:13:45;98412.60;;;24.45;100.00
23899;BME280;20544;50.018;20.010;2023-07-31T13:17:02;98409.39;;;24.43;100.00
23899;BME280;20544;50.018;20.010;2023-07-31T13:20:23;98407.19;;;24.45;100.00
23899;BME280;20544;50.018;20.010;2023-07-31T13:23:42;98409.89;;;24.45;100.00
23899;BME280;20544;50.018;20.010;2023-07-31T13:26:59;98405.61;;;24.38;100.00
23899;BME280;20544;50.018;20.010;2023-07-31T13:30:15;98402.39;;;24.36;100.00
23899;BME280;20544;50.018;20.010;2023-07-31T13:33:32;98408.64;;;24.32;100.00
23899;BME280;20544;50.018;20.010;2023-07-31T13:36:50;98397.01;;;24.31;100.00
23899;BME280;20544;50.018;20.010;2023-07-31T13:40:09;98400.27;;;24.28;100.00
23899;BME280;20544;50.018;20.010;2023-07-31T13:43:26;98405.43;;;24.25;100.00
23899;BME280;20544;50.018;20.010;2023-07-31T13:46:43;98397.88;;;24.21;100.00
23899;BME280;20544;50.018;20.010;2023-07-31T13:49:59;98390.02;;;24.20;100.00
23899;BME280;20544;50.018;20.010;2023-07-31T13:53:16;98387.59;;;24.18;100.00
23899;BME280;20544;50.018;20.010;2023-07-31T13:56:34;98386.26;;;24.16;100.00
23899;BME280;20544;50.018;20.010;2023-07-31T13:59:51;98382.75;;;24.15;100.00
23899;BME280;20544;50.018;20.010;2023-07-31T14:03:07;98381.13;;;24.14;100.00
23899;BME280;20544;50.018;20.010;2023-07-31T14:06:24;98385.76;;;24.09;100.00
23899;BME280;20544;50.018;20.010;2023-07-31T14:09:41;98384.67;;;24.10;100.00
23899;BME280;20544;50.018;20.010;2023-07-31T14:12:57;98387.67;;;24.08;100.00
23899;BME280;20544;50.018;20.010;2023-07-31T14:16:14;98378.20;;;24.05;100.00
23899;BME280;20544;50.018;20.010;2023-07-31T14:19:31;98380.66;;;24.02;100.00
23899;BME280;20544;50.018;20.010;2023-07-31T14:22:48;98370.13;;;24.00;100.00
23899;BME280;20544;50.018;20.010;2023-07-31T14:26:05;98365.28;;;23.92;100.00
23899;BME280;20544;50.018;20.010;2023-07-31T14:29:21;98359.84;;;23.97;100.00
23899;BME280;20544;50.018;20.010;2023-07-31T14:32:38;98363.41;;;23.93;100.00
23899;BME280;20544;50.018;20.010;2023-07-31T14:35:54;98359.87;;;23.92;100.00
23899;BME280;20544;50.018;20.010;2023-07-31T14:39:11;98360.41;;;23.89;100.00
23899;BME280;20544;50.018;20.010;2023-07-31T14:42:27;98352.55;;;23.87;100.00
23899;BME280;20544;50.018;20.010;2023-07-31T14:45:44;98347.13;;;23.87;100.00
23899;BME280;20544;50.018;20.010;2023-07-31T14:49:01;98350.67;;;23.88;100.00
23899;BME280;20544;50.018;20.010;2023-07-31T14:52:17;98349.08;;;23.82;100.00
23899;BME280;20544;50.018;20.010;2023-07-31T14:55:33;98337.71;;;23.80;100.00
23899;BME280;20544;50.018;20.010;2023-07-31T14:58:50;98336.66;;;23.75;100.00
23899;BME280;20544;50.018;20.010;2023-07-31T15:02:08;98335.03;;;23.74;100.00
23899;BME280;20544;50.018;20.010;2023-07-31T15:05:24;98325.58;;;23.72;100.00
23899;BME280;20544;50.018;20.010;2023-07-31T15:08:41;98334.23;;;23.74;100.00
23899;BME280;20544;50.018;20.010;2023-07-31T15:11:57;98330.45;;;23.70;100.00
23899;BME280;20544;50.018;20.010;2023-07-31T15:15:14;98329.11;;;23.67;100.00
23899;BME280;20544;50.018;20.010;2023-07-31T15:18:31;98327.78;;;23.65;100.00
23899;BME280;20544;50.018;20.010;2023-07-31T15:21:47;98330.77;;;23.63;100.00
23899;BME280;20544;50.018;20.010;2023-07-31T15:25:04;98333.77;;;23.62;100.00
23899;BME280;20544;50.018;20.010;2023-07-31T15:28:22;98319.98;;;23.58;100.00
23899;BME280;20544;50.018;20.010;2023-07-31T15:31:40;98318.89;;;23.59;100.00
23899;BME280;20544;50.018;20.010;2023-07-31T15:34:57;98322.97;;;23.56;100.00
23899;BME280;20544;50.018;20.010;2023-07-31T15:38:20;98325.67;;;23.51;100.00
23899;BME280;20544;50.018;20.010;2023-07-31T15:42:01;98318.67;;;23.50;100.00
23899;BME280;20544;50.018;20.010;2023-07-31T15:45:31;98318.92;;;23.49;100.00
23899;BME280;20544;50.018;20.010;2023-07-31T15:49:13;98308.70;;;23.40;100.00
23899;BME280;20544;50.018;20.010;2023-07-31T15:52:32;98314.65;;;23.37;100.00
23899;BME280;20544;50.018;20.010;2023-07-31T15:56:02;98312.25;;;23.31;100.00
23899;BME280;20544;50.018;20.010;2023-07-31T16:03:31;98307.97;;;23.19;100.00
23899;BME280;20544;50.018;20.010;2023-07-31T16:06:48;98307.72;;;23.16;100.00
23899;BME280;20544;50.018;20.010;2023-07-31T16:13:22;98298.25;;;23.08;100.00
23899;BME280;20544;50.018;20.010;2023-07-31T16:16:43;98301.49;;;23.05;100.00
23899;BME280;20544;50.018;20.010;2023-07-31T16:20:02;98301.49;;;23.05;100.00
23899;BME280;20544;50.018;20.010;2023-07-31T16:23:19;98296.65;;;23.02;100.00
23899;BME280;20544;50.018;20.010;2023-07-31T16:26:36;98293.13;;;23.01;100.00
23899;BME280;20544;50.018;20.010;2023-07-31T16:29:52;98296.64;;;22.97;100.00
23899;BME280;20544;50.018;20.010;2023-07-31T16:33:09;98287.47;;;22.92;100.00
23899;BME280;20544;50.018;20.010;2023-07-31T16:36:26;98284.77;;;22.92;100.00
23899;BME280;20544;50.018;20.010;2023-07-31T16:39:42;98290.73;;;22.89;100.00
23899;BME280;20544;50.018;20.010;2023-07-31T16:43:00;98278.04;;;22.85;100.00
23899;BME280;20544;50.018;20.010;2023-07-31T16:46:17;98282.10;;;22.82;100.00
23899;BME280;20544;50.018;20.010;2023-07-31T16:49:33;98282.92;;;22.77;100.00
23899;BME280;20544;50.018;20.010;2023-07-31T16:52:49;98284.28;;;22.75;100.00
23899;BME280;20544;50.018;20.010;2023-07-31T16:56:06;98284.02;;;22.71;100.00
23899;BME280;20544;50.018;20.010;2023-07-31T16:59:22;98285.37;;;22.69;100.00
23899;BME280;20544;50.018;20.010;2023-07-31T17:02:39;98282.96;;;22.62;100.00
23899;BME280;20544;50.018;20.010;2023-07-31T17:05:56;98282.41;;;22.60;100.00
23899;BME280;20544;50.018;20.010;2023-07-31T17:09:12;98281.63;;;22.54;100.00
23899;BME280;20544;50.018;20.010;2023-07-31T17:12:28;98273.51;;;22.49;100.00
23899;BME280;20544;50.018;20.010;2023-07-31T17:15:45;98278.10;;;22.54;100.00
23899;BME280;20544;50.018;20.010;2023-07-31T17:19:01;98279.73;;;22.55;100.00